createdAt,value
2023-03-29T00:01:11.658Z,99361.48
2023-03-29T00:04:02.853Z,99355.41
2023-03-29T00:06:33.425Z,99354.66
2023-03-29T00:09:06.057Z,99356.16
2023-03-29T00:11:34.644Z,99355.16
2023-03-29T00:14:03.484Z,99355.70
2023-03-29T00:16:32.381Z,99352.18
2023-03-29T00:19:01.278Z,99351.70
2023-03-29T00:21:29.840Z,99355.80
2023-03-29T00:23:59.499Z,99351.24
2023-03-29T00:26:28.646Z,99351.85
2023-03-29T00:28:57.128Z,99351.10
2023-03-29T00:31:27.039Z,99353.95
2023-03-29T00:33:56.071Z,99349.66
2023-03-29T00:36:24.838Z,99347.27
2023-03-29T00:38:53.901Z,99347.51
2023-03-29T00:41:22.928Z,99349.10
2023-03-29T00:44:00.767Z,99345.95
2023-03-29T00:46:32.419Z,99346.80
2023-03-29T00:49:09.716Z,99348.41
2023-03-29T00:51:41.617Z,99343.81
2023-03-29T00:54:16.809Z,99341.45
2023-03-29T00:56:50.225Z,99337.64
2023-03-29T00:59:24.835Z,99336.89
2023-03-29T01:02:14.875Z,99335.55
2023-03-29T01:04:54.061Z,99335.70
2023-03-29T01:07:38.871Z,99336.92
2023-03-29T01:10:12.590Z,99333.52
2023-03-29T01:12:46.945Z,99329.73
2023-03-29T01:15:20.558Z,99330.20
2023-03-29T01:17:52.032Z,99325.39
2023-03-29T01:20:39.212Z,99324.89
2023-03-29T01:23:31.138Z,99320.51
2023-03-29T01:25:59.859Z,99315.02
2023-03-29T01:28:36.192Z,99312.67
2023-03-29T01:31:11.152Z,99310.46
2023-03-29T01:33:49.364Z,99314.38
2023-03-29T01:36:52.107Z,99312.67
2023-03-29T01:39:22.335Z,99304.71
2023-03-29T01:42:18.721Z,99303.11
2023-03-29T01:44:57.651Z,99305.52
2023-03-29T01:47:44.789Z,99307.13
2023-03-29T01:50:28.672Z,99299.93
2023-03-29T01:53:03.330Z,99298.36
2023-03-29T01:55:36.536Z,99301.15
2023-03-29T01:58:09.163Z,99297.77
2023-03-29T02:00:40.540Z,99295.45
2023-03-29T02:03:10.948Z,99296.94
2023-03-29T02:05:40.150Z,99298.91
2023-03-29T02:08:11.525Z,99295.86
2023-03-29T02:10:40.882Z,99301.08
2023-03-29T02:13:09.630Z,99297.46
2023-03-29T02:15:39.228Z,99297.11
2023-03-29T02:18:08.278Z,99295.98
2023-03-29T02:20:41.212Z,99289.70
2023-03-29T02:23:25.008Z,99284.59
2023-03-29T02:25:57.479Z,99288.45
2023-03-29T02:28:29.755Z,99286.13
2023-03-29T02:31:15.163Z,99282.71
2023-03-29T02:34:37.942Z,99275.35
2023-03-29T02:37:16.125Z,99273.59
2023-03-29T02:39:48.026Z,99270.33
2023-03-29T02:42:20.772Z,99266.20
2023-03-29T02:44:52.420Z,99259.54
2023-03-29T02:47:32.118Z,99258.30
2023-03-29T02:50:01.549Z,99257.75
2023-03-29T02:52:36.412Z,99251.91
2023-03-29T02:55:08.560Z,99248.89
2023-03-29T02:57:40.131Z,99249.23
2023-03-29T03:00:10.816Z,99247.16
2023-03-29T03:02:39.835Z,99246.08
2023-03-29T03:05:09.782Z,99242.70
2023-03-29T03:07:40.811Z,99244.54
2023-03-29T03:10:10.744Z,99243.52
2023-03-29T03:12:39.703Z,99239.87
2023-03-29T03:15:09.096Z,99238.99
2023-03-29T03:17:40.568Z,99239.01
2023-03-29T03:20:13.428Z,99234.60
2023-03-29T03:22:49.432Z,99237.25
2023-03-29T03:25:21.353Z,99238.21
2023-03-29T03:27:52.435Z,99244.80
2023-03-29T03:30:22.791Z,99241.90
2023-03-29T03:33:11.928Z,99237.94
2023-03-29T03:36:06.711Z,99234.20
2023-03-29T03:38:40.622Z,99233.13
2023-03-29T03:41:09.360Z,99233.40
2023-03-29T03:43:38.323Z,99230.01
2023-03-29T03:46:09.223Z,99227.64
2023-03-29T03:48:37.914Z,99224.95
2023-03-29T03:51:10.960Z,99221.96
2023-03-29T03:53:41.865Z,99221.71
2023-03-29T03:56:17.385Z,99223.45
2023-03-29T03:59:00.200Z,99222.03
2023-03-29T04:01:29.652Z,99223.39
2023-03-29T04:04:04.812Z,99222.70
2023-03-29T04:06:34.526Z,99224.39
2023-03-29T04:09:23.558Z,99220.98
2023-03-29T04:12:02.997Z,99220.25
2023-03-29T04:14:32.558Z,99219.48
2023-03-29T04:17:16.682Z,99222.47
2023-03-29T04:19:50.056Z,99219.48
2023-03-29T04:22:20.348Z,99212.92
2023-03-29T04:24:50.032Z,99212.27
2023-03-29T04:27:38.146Z,99210.33
2023-03-29T04:30:13.304Z,99210.94
2023-03-29T04:33:02.072Z,99211.53
2023-03-29T04:35:30.934Z,99209.70
2023-03-29T04:37:59.571Z,99208.02
2023-03-29T04:40:29.616Z,99206.94
2023-03-29T04:43:18.496Z,99204.66
2023-03-29T04:45:58.651Z,99203.31
2023-03-29T04:48:56.229Z,99196.76
2023-03-29T04:51:33.725Z,99198.16
2023-03-29T04:54:02.470Z,99197.02
2023-03-29T04:56:32.251Z,99192.84
2023-03-29T04:59:24.641Z,99193.33
2023-03-29T05:01:54.829Z,99189.14
2023-03-29T05:04:24.943Z,99189.28
2023-03-29T05:07:04.818Z,99186.08
2023-03-29T05:09:35.384Z,99180.05
2023-03-29T05:12:07.118Z,99177.84
2023-03-29T05:14:46.281Z,99177.52
2023-03-29T05:17:15.692Z,99174.34
2023-03-29T05:19:44.259Z,99171.21
2023-03-29T05:22:12.825Z,99170.59
2023-03-29T05:24:42.737Z,99163.90
2023-03-29T05:27:18.407Z,99164.77
2023-03-29T05:29:58.963Z,99163.91
2023-03-29T05:33:05.864Z,99165.27
2023-03-29T05:35:36.601Z,99168.34
2023-03-29T05:38:07.243Z,99161.35
2023-03-29T05:40:36.376Z,99157.27
2023-03-29T05:43:22.496Z,99150.54
2023-03-29T05:45:54.382Z,99164.45
2023-03-29T05:48:24.576Z,99166.25
2023-03-29T05:50:54.776Z,99166.33
2023-03-29T05:53:24.295Z,99165.13
2023-03-29T05:55:53.928Z,99165.23
2023-03-29T05:58:26.897Z,99161.23
2023-03-29T06:00:56.231Z,99162.81
2023-03-29T06:03:44.169Z,99164.30
2023-03-29T06:06:16.770Z,99162.17
2023-03-29T06:08:46.744Z,99153.36
2023-03-29T06:11:35.805Z,99151.80
2023-03-29T06:14:16.371Z,99149.58
2023-03-29T06:16:50.575Z,99144.15
2023-03-29T06:19:19.973Z,99146.15
2023-03-29T06:21:48.816Z,99141.91
2023-03-29T06:24:21.658Z,99138.60
2023-03-29T06:26:56.644Z,99144.02
2023-03-29T06:29:26.011Z,99145.49
2023-03-29T06:31:55.274Z,99150.32
2023-03-29T06:34:43.353Z,99150.88
2023-03-29T06:37:32.880Z,99146.10
2023-03-29T06:40:34.600Z,99142.76
2023-03-29T06:43:03.141Z,99145.64
2023-03-29T06:45:47.751Z,99141.92
2023-03-29T06:48:23.187Z,99138.85
2023-03-29T06:50:52.992Z,99144.00
2023-03-29T06:53:24.970Z,99141.27
2023-03-29T06:55:57.693Z,99141.08
2023-03-29T06:58:41.392Z,99137.52
2023-03-29T07:01:22.388Z,99135.77
2023-03-29T07:03:57.623Z,99138.48
2023-03-29T07:06:32.070Z,99136.05
2023-03-29T07:09:01.933Z,99134.66
2023-03-29T07:11:54.003Z,99137.61
2023-03-29T07:14:30.277Z,99138.52
2023-03-29T07:16:59.625Z,99139.66
2023-03-29T07:19:34.727Z,99143.61
2023-03-29T07:22:36.452Z,99140.15
2023-03-29T07:25:06.167Z,99139.48
2023-03-29T07:27:36.662Z,99134.77
2023-03-29T07:30:11.350Z,99136.86
2023-03-29T07:32:44.720Z,99140.48
2023-03-29T07:35:34.243Z,99138.25
2023-03-29T07:38:04.241Z,99138.70
2023-03-29T07:40:34.754Z,99134.59
2023-03-29T07:43:22.645Z,99133.19
2023-03-29T07:45:53.370Z,99132.67
2023-03-29T07:48:22.527Z,99125.37
2023-03-29T07:50:59.158Z,99126.77
2023-03-29T07:53:32.626Z,99123.23
2023-03-29T07:56:05.131Z,99118.56
2023-03-29T07:58:53.441Z,99117.14
2023-03-29T08:01:23.548Z,99115.90
2023-03-29T08:04:14.029Z,99115.61
2023-03-29T08:07:01.833Z,99118.20
2023-03-29T08:09:54.132Z,99114.09
2023-03-29T08:12:27.148Z,99114.84
2023-03-29T08:14:57.849Z,99113.55
2023-03-29T08:17:33.755Z,99116.92
2023-03-29T08:20:04.200Z,99110.33
2023-03-29T08:22:33.447Z,99109.63
2023-03-29T08:25:20.998Z,99107.03
2023-03-29T08:27:51.915Z,99106.75
2023-03-29T08:30:30.396Z,99106.70
2023-03-29T08:32:59.436Z,99096.81
2023-03-29T08:35:28.064Z,99093.27
2023-03-29T08:38:17.533Z,99095.48
2023-03-29T08:40:49.087Z,99092.73
2023-03-29T08:43:58.372Z,99086.73
2023-03-29T08:46:56.026Z,99084.69
2023-03-29T08:49:31.177Z,99090.39
2023-03-29T08:52:05.969Z,99091.11
2023-03-29T08:54:49.107Z,99091.25
2023-03-29T08:57:29.341Z,99092.30
2023-03-29T09:00:32.887Z,99088.52
2023-03-29T09:03:22.576Z,99083.30
2023-03-29T09:06:08.829Z,99081.20
2023-03-29T09:08:46.984Z,99077.52
2023-03-29T09:11:33.409Z,99073.48
2023-03-29T09:14:11.225Z,99070.45
2023-03-29T09:16:43.638Z,99071.13
2023-03-29T09:19:27.961Z,99072.68
2023-03-29T09:22:16.383Z,99071.29
2023-03-29T09:25:00.912Z,99066.02
2023-03-29T09:27:39.538Z,99069.05
2023-03-29T09:30:28.861Z,99069.04
2023-03-29T09:33:15.834Z,99071.89
2023-03-29T09:36:18.892Z,99066.90
2023-03-29T09:42:08.399Z,99062.34
2023-03-29T09:44:42.586Z,99062.06
2023-03-29T09:47:17.642Z,99063.79
2023-03-29T09:49:49.740Z,99066.11
2023-03-29T09:52:21.217Z,99061.05
2023-03-29T09:54:59.783Z,99059.95
2023-03-29T09:57:54.283Z,99063.71
2023-03-29T10:00:23.349Z,99063.21
2023-03-29T10:02:54.060Z,99062.77
2023-03-29T10:05:30.367Z,99058.16
2023-03-29T10:08:01.745Z,99057.19
2023-03-29T10:10:34.268Z,99054.25
2023-03-29T10:13:11.780Z,99051.60
2023-03-29T10:15:40.621Z,99050.97
2023-03-29T10:18:14.088Z,99047.17
2023-03-29T10:20:43.154Z,99045.89
2023-03-29T10:23:18.804Z,99043.42
2023-03-29T10:25:47.875Z,99050.73
2023-03-29T10:28:21.591Z,99042.71
2023-03-29T10:30:56.690Z,99039.20
2023-03-29T10:33:31.640Z,99036.36
2023-03-29T10:36:03.257Z,99034.57
2023-03-29T10:38:32.428Z,99034.37
2023-03-29T10:41:08.424Z,99029.18
2023-03-29T10:43:44.827Z,99028.59
2023-03-29T10:46:20.173Z,99031.35
2023-03-29T10:48:51.619Z,99026.80
2023-03-29T10:51:21.991Z,99023.69
2023-03-29T10:53:51.071Z,99019.96
2023-03-29T10:56:23.456Z,99017.44
2023-03-29T10:59:04.014Z,99015.73
2023-03-29T11:01:39.182Z,99011.82
2023-03-29T11:04:30.862Z,99008.34
2023-03-29T11:07:32.128Z,99000.54
2023-03-29T11:10:10.252Z,98997.94
2023-03-29T11:12:52.558Z,98993.65
2023-03-29T11:15:58.238Z,98989.88
2023-03-29T11:19:02.421Z,98981.39
2023-03-29T11:21:50.382Z,98980.84
2023-03-29T11:24:19.150Z,98979.88
2023-03-29T11:27:06.856Z,98977.58
2023-03-29T11:30:13.661Z,98972.04
2023-03-29T11:32:51.195Z,98968.70
2023-03-29T11:35:45.896Z,98965.82
2023-03-29T11:38:33.172Z,98962.64
2023-03-29T11:41:15.496Z,98958.38
2023-03-29T11:43:55.154Z,98955.50
2023-03-29T11:46:27.652Z,98951.59
2023-03-29T11:49:21.671Z,98955.30
2023-03-29T11:52:06.489Z,98950.81
2023-03-29T11:54:59.166Z,98942.60
2023-03-29T11:57:54.712Z,98936.65
2023-03-29T12:00:33.129Z,98935.18
2023-03-29T12:03:23.203Z,98934.36
2023-03-29T12:06:18.421Z,98931.29
2023-03-29T12:09:03.482Z,98932.11
2023-03-29T12:11:41.008Z,98927.22
2023-03-29T12:14:22.480Z,98926.17
2023-03-29T12:17:05.674Z,98925.63
2023-03-29T12:19:55.877Z,98918.41
2023-03-29T12:22:24.759Z,98919.47
2023-03-29T12:24:58.492Z,98914.38
2023-03-29T12:27:59.980Z,98908.63
2023-03-29T12:30:55.258Z,98901.73
2023-03-29T12:33:41.167Z,98893.82
2023-03-29T12:36:42.091Z,98894.20
2023-03-29T12:39:51.908Z,98896.20
2023-03-29T12:43:13.398Z,98887.98
2023-03-29T12:46:26.057Z,98886.06
2023-03-29T12:49:01.734Z,98883.21
2023-03-29T12:51:33.756Z,98884.66
2023-03-29T12:54:22.301Z,98888.38
2023-03-29T12:56:54.683Z,98883.77
2023-03-29T12:59:23.255Z,98879.50
2023-03-29T13:02:10.986Z,98880.80
2023-03-29T13:04:43.366Z,98881.84
2023-03-29T13:07:17.761Z,98883.08
2023-03-29T13:09:53.058Z,98885.05
2023-03-29T13:12:27.520Z,98881.38
2023-03-29T13:15:21.678Z,98872.98
2023-03-29T13:17:59.667Z,98871.67
2023-03-29T13:20:37.999Z,98876.39
2023-03-29T13:23:09.655Z,98880.78
2023-03-29T13:26:00.545Z,98875.59
2023-03-29T13:28:29.618Z,98875.25
2023-03-29T13:31:23.892Z,98871.88
2023-03-29T13:34:00.246Z,98876.63
2023-03-29T13:36:33.104Z,98880.41
2023-03-29T13:39:08.859Z,98873.67
2023-03-29T13:41:41.003Z,98863.29
2023-03-29T13:44:43.975Z,98862.77
2023-03-29T13:47:34.343Z,98858.54
2023-03-29T13:50:15.123Z,98854.50
2023-03-29T13:52:54.867Z,98858.41
2023-03-29T13:55:33.602Z,98865.34
2023-03-29T13:58:13.645Z,98864.41
2023-03-29T14:00:50.010Z,98863.30
2023-03-29T14:03:26.628Z,98866.34
2023-03-29T14:06:02.141Z,98868.86
2023-03-29T14:08:35.992Z,98871.63
2023-03-29T14:11:07.627Z,98874.75
2023-03-29T14:13:37.739Z,98876.33
2023-03-29T14:16:11.314Z,98881.96
2023-03-29T14:18:42.435Z,98879.21
2023-03-29T14:21:14.330Z,98875.63
2023-03-29T14:23:46.916Z,98876.93
2023-03-29T14:26:22.337Z,98874.61
2023-03-29T14:28:53.602Z,98865.91
2023-03-29T14:31:42.635Z,98855.36
2023-03-29T14:34:16.905Z,98850.29
2023-03-29T14:36:49.528Z,98845.19
2023-03-29T14:39:21.712Z,98844.31
2023-03-29T14:41:58.150Z,98845.83
2023-03-29T14:44:32.339Z,98845.08
2023-03-29T14:47:03.619Z,98839.52
2023-03-29T14:49:32.708Z,98838.45
2023-03-29T14:52:01.312Z,98838.02
2023-03-29T14:54:33.931Z,98839.86
2023-03-29T14:57:07.528Z,98836.95
2023-03-29T14:59:43.143Z,98834.96
2023-03-29T15:02:29.947Z,98833.77
2023-03-29T15:05:03.746Z,98834.66
2023-03-29T15:07:34.924Z,98829.06
2023-03-29T15:10:06.837Z,98830.05
2023-03-29T15:12:38.241Z,98834.65
2023-03-29T15:15:12.473Z,98834.94
2023-03-29T15:17:50.262Z,98829.63
2023-03-29T15:20:27.920Z,98824.41
2023-03-29T15:23:01.172Z,98826.65
2023-03-29T15:25:36.714Z,98832.34
2023-03-29T15:28:05.500Z,98836.66
2023-03-29T15:30:46.252Z,98833.90
2023-03-29T15:33:23.318Z,98836.48
2023-03-29T15:35:54.055Z,98833.21
2023-03-29T15:38:30.203Z,98826.16
2023-03-29T15:41:08.858Z,98827.96
2023-03-29T15:43:39.077Z,98823.07
2023-03-29T15:46:08.430Z,98821.37
2023-03-29T15:48:37.937Z,98823.92
2023-03-29T15:51:07.810Z,98824.72
2023-03-29T15:53:36.676Z,98828.75
2023-03-29T15:56:08.061Z,98826.26
2023-03-29T15:58:38.230Z,98822.36
2023-03-29T16:01:33.885Z,98815.15
2023-03-29T16:04:12.472Z,98812.28
2023-03-29T16:06:41.841Z,98809.45
2023-03-29T16:09:12.224Z,98808.36
2023-03-29T16:11:43.070Z,98810.38
2023-03-29T16:14:27.582Z,98805.53
2023-03-29T16:17:01.481Z,98804.29
2023-03-29T16:19:33.245Z,98803.20
2023-03-29T16:22:05.403Z,98801.90
2023-03-29T16:24:35.898Z,98800.96
2023-03-29T16:27:04.668Z,98808.50
2023-03-29T16:29:34.893Z,98809.48
2023-03-29T16:32:06.603Z,98815.61
2023-03-29T16:34:36.444Z,98818.17
2023-03-29T16:37:05.249Z,98817.14
2023-03-29T16:39:33.705Z,98815.69
2023-03-29T16:42:02.909Z,98815.48
2023-03-29T16:44:31.653Z,98815.24
2023-03-29T16:47:00.173Z,98811.08
2023-03-29T16:49:29.522Z,98802.75
2023-03-29T16:52:00.531Z,98795.27
2023-03-29T16:54:29.907Z,98794.86
2023-03-29T16:56:59.038Z,98788.91
2023-03-29T16:59:28.281Z,98788.71
2023-03-29T17:01:56.949Z,98787.29
2023-03-29T17:04:39.457Z,98783.80
2023-03-29T17:07:28.482Z,98783.56
2023-03-29T17:10:21.991Z,98782.46
2023-03-29T17:13:09.972Z,98779.58
2023-03-29T17:16:01.882Z,98778.80
2023-03-29T17:18:53.423Z,98780.09
2023-03-29T17:21:45.610Z,98779.20
2023-03-29T17:24:38.521Z,98774.45
2023-03-29T17:27:24.607Z,98771.61
2023-03-29T17:30:27.893Z,98773.11
2023-03-29T17:33:19.104Z,98772.33
2023-03-29T17:36:11.423Z,98774.67
2023-03-29T17:39:03.476Z,98770.11
2023-03-29T17:41:52.608Z,98771.77
2023-03-29T17:44:28.646Z,98772.91
2023-03-29T17:46:58.857Z,98773.19
2023-03-29T17:49:27.774Z,98774.23
2023-03-29T17:51:57.981Z,98780.94
2023-03-29T17:54:27.304Z,98782.34
2023-03-29T17:56:55.815Z,98786.19
2023-03-29T17:59:25.160Z,98781.04
2023-03-29T18:01:54.017Z,98782.98
2023-03-29T18:04:22.531Z,98782.81
2023-03-29T18:06:51.449Z,98781.08
2023-03-29T18:09:20.154Z,98777.66
2023-03-29T18:11:48.538Z,98773.67
2023-03-29T18:14:18.040Z,98772.64
2023-03-29T18:16:47.381Z,98775.23
2023-03-29T18:19:16.161Z,98775.35
2023-03-29T18:21:45.137Z,98781.14
2023-03-29T18:24:13.676Z,98780.74
2023-03-29T18:26:42.258Z,98780.33
2023-03-29T18:29:11.786Z,98780.82
2023-03-29T18:31:40.789Z,98777.17
2023-03-29T18:34:09.762Z,98776.99
2023-03-29T18:36:39.070Z,98774.77
2023-03-29T18:39:08.011Z,98769.41
2023-03-29T18:41:37.614Z,98769.99
2023-03-29T18:44:08.112Z,98770.17
2023-03-29T18:46:37.165Z,98770.90
2023-03-29T18:49:07.855Z,98774.17
2023-03-29T18:51:37.317Z,98771.39
2023-03-29T18:54:06.787Z,98770.65
2023-03-29T18:56:36.030Z,98769.96
2023-03-29T18:59:06.877Z,98767.85
2023-03-29T19:01:36.214Z,98772.66
2023-03-29T19:04:04.869Z,98767.15
2023-03-29T19:06:34.016Z,98767.85
2023-03-29T19:09:05.437Z,98764.94
2023-03-29T19:11:36.255Z,98765.84
2023-03-29T19:14:08.666Z,98765.55
2023-03-29T19:16:38.497Z,98761.79
2023-03-29T19:19:09.409Z,98756.78
2023-03-29T19:21:39.036Z,98758.86
2023-03-29T19:24:08.129Z,98756.45
2023-03-29T19:26:36.889Z,98755.05
2023-03-29T19:29:06.679Z,98754.86
2023-03-29T19:31:38.209Z,98750.30
2023-03-29T19:34:10.075Z,98744.25
2023-03-29T19:36:38.691Z,98741.98
2023-03-29T19:39:07.636Z,98744.90
2023-03-29T19:41:36.974Z,98738.54
2023-03-29T19:44:06.758Z,98739.28
2023-03-29T19:46:35.274Z,98737.47
2023-03-29T19:49:06.108Z,98733.36
2023-03-29T19:51:34.907Z,98731.10
2023-03-29T19:54:03.464Z,98730.36
2023-03-29T19:56:33.558Z,98727.73
2023-03-29T19:59:02.021Z,98727.85
2023-03-29T20:01:32.613Z,98727.82
2023-03-29T20:04:03.167Z,98726.77
2023-03-29T20:06:31.700Z,98726.02
2023-03-29T20:09:00.246Z,98726.35
2023-03-29T20:11:29.518Z,98722.21
2023-03-29T20:13:58.349Z,98722.91
2023-03-29T20:16:27.366Z,98727.30
2023-03-29T20:18:56.700Z,98730.79
2023-03-29T20:21:25.539Z,98730.66
2023-03-29T20:23:54.029Z,98728.95
2023-03-29T20:26:23.468Z,98725.17
2023-03-29T20:28:52.909Z,98730.88
2023-03-29T20:31:21.403Z,98729.84
2023-03-29T20:33:50.664Z,98730.05
2023-03-29T20:36:23.168Z,98723.17
2023-03-29T20:38:52.947Z,98720.11
2023-03-29T20:41:23.127Z,98715.69
2023-03-29T20:43:58.792Z,98710.74
2023-03-29T20:46:34.413Z,98706.11
2023-03-29T20:49:05.001Z,98704.58
2023-03-29T20:51:33.818Z,98703.19
2023-03-29T20:54:05.003Z,98703.20
2023-03-29T20:56:35.670Z,98701.13
2023-03-29T20:59:04.733Z,98697.86
2023-03-29T21:01:35.245Z,98699.58
2023-03-29T21:04:03.883Z,98698.70
2023-03-29T21:06:33.804Z,98694.55
2023-03-29T21:09:02.503Z,98695.39
2023-03-29T21:11:31.170Z,98694.52
2023-03-29T21:13:59.829Z,98694.88
2023-03-29T21:16:29.335Z,98694.70
2023-03-29T21:18:58.056Z,98691.08
2023-03-29T21:21:26.687Z,98686.63
2023-03-29T21:23:55.044Z,98683.02
2023-03-29T21:26:24.047Z,98680.80
2023-03-29T21:28:52.723Z,98678.91
2023-03-29T21:31:21.478Z,98678.23
2023-03-29T21:33:50.391Z,98676.89
2023-03-29T21:36:19.857Z,98672.45
2023-03-29T21:38:48.372Z,98664.87
2023-03-29T21:41:17.579Z,98657.48
2023-03-29T21:43:46.059Z,98657.52
2023-03-29T21:46:14.649Z,98654.10
2023-03-29T21:48:43.617Z,98656.71
2023-03-29T21:51:12.344Z,98653.10
2023-03-29T21:53:40.629Z,98652.10
2023-03-29T21:56:09.154Z,98650.92
2023-03-29T21:58:38.621Z,98646.47
2023-03-29T22:01:10.290Z,98646.67
2023-03-29T22:03:39.164Z,98644.26
2023-03-29T22:06:09.823Z,98644.80
2023-03-29T22:08:41.451Z,98642.21
2023-03-29T22:11:11.738Z,98642.90
2023-03-29T22:13:40.605Z,98640.33
2023-03-29T22:16:10.373Z,98640.69
2023-03-29T22:18:47.113Z,98638.86
2023-03-29T22:21:18.058Z,98635.46
2023-03-29T22:23:47.797Z,98631.75
2023-03-29T22:26:17.290Z,98626.31
2023-03-29T22:28:46.192Z,98625.17
2023-03-29T22:31:16.178Z,98621.31
2023-03-29T22:33:44.659Z,98621.91
2023-03-29T22:36:16.695Z,98618.00
2023-03-29T22:38:46.414Z,98616.23
2023-03-29T22:41:15.986Z,98615.92
2023-03-29T22:43:45.171Z,98616.77
2023-03-29T22:46:14.297Z,98617.94
2023-03-29T22:48:42.638Z,98617.55
2023-03-29T22:51:12.247Z,98613.33
2023-03-29T22:53:41.681Z,98613.64
2023-03-29T22:56:10.022Z,98612.71
2023-03-29T22:58:38.642Z,98613.14
2023-03-29T23:01:08.191Z,98613.10
2023-03-29T23:03:37.107Z,98607.71
2023-03-29T23:06:06.037Z,98604.92
2023-03-29T23:08:35.392Z,98606.27
2023-03-29T23:11:04.836Z,98598.11
2023-03-29T23:13:34.044Z,98599.80
2023-03-29T23:16:03.905Z,98596.36
2023-03-29T23:18:35.297Z,98603.23
2023-03-29T23:21:06.342Z,98604.94
2023-03-29T23:23:36.325Z,98605.10
2023-03-29T23:26:05.144Z,98600.10
2023-03-29T23:28:34.884Z,98600.08
2023-03-29T23:31:10.459Z,98597.67
2023-03-29T23:33:41.404Z,98595.43
2023-03-29T23:36:14.468Z,98591.13
2023-03-29T23:38:44.301Z,98588.38
2023-03-29T23:41:13.209Z,98587.17
2023-03-29T23:43:43.464Z,98585.98
2023-03-29T23:46:13.497Z,98584.77
2023-03-29T23:48:49.530Z,98584.90
2023-03-29T23:51:19.090Z,98584.05
2023-03-29T23:53:47.605Z,98581.79
2023-03-29T23:56:16.940Z,98581.13
2023-03-29T23:58:45.876Z,98576.64
